createdAt,value
2018-12-17T00:00:24.756Z,101906.85
2018-12-17T00:03:28.215Z,101905.69
2018-12-17T00:06:31.835Z,101912.60
2018-12-17T00:09:35.374Z,101908.82
2018-12-17T00:12:38.995Z,101905.96
2018-12-17T00:15:42.462Z,101905.96
2018-12-17T00:18:46.852Z,101900.19
2018-12-17T00:21:50.371Z,101904.27
2018-12-17T00:24:53.957Z,101905.91
2018-12-17T00:27:57.506Z,101900.41
2018-12-17T00:31:00.941Z,101898.35
2018-12-17T00:34:04.424Z,101902.96
2018-12-17T00:37:08.014Z,101900.98
2018-12-17T00:40:11.709Z,101900.15
2018-12-17T00:43:15.180Z,101913.01
2018-12-17T00:46:18.711Z,101908.46
2018-12-17T00:49:22.320Z,101911.19
2018-12-17T00:52:25.991Z,101912.78
2018-12-17T00:55:29.897Z,101910.41
2018-12-17T00:58:33.565Z,101910.71
2018-12-17T01:01:38.143Z,101910.81
2018-12-17T01:04:41.771Z,101914.33
2018-12-17T01:07:45.377Z,101918.11
2018-12-17T01:10:49.037Z,101920.75
2018-12-17T01:13:52.553Z,101920.97
2018-12-17T01:16:56.231Z,101924.93
2018-12-17T01:20:00.894Z,101929.68
2018-12-17T01:23:04.601Z,101934.48
2018-12-17T01:26:10.259Z,101942.62
2018-12-17T01:29:13.746Z,101940.68
2018-12-17T01:32:17.355Z,101943.10
2018-12-17T01:35:21.107Z,101960.89
2018-12-17T01:38:24.610Z,101955.16
2018-12-17T01:41:28.315Z,101959.25
2018-12-17T01:44:32.005Z,101962.43
2018-12-17T01:47:35.768Z,101956.71
2018-12-17T01:50:39.419Z,101955.30
2018-12-17T01:53:43.143Z,101950.80
2018-12-17T01:56:47.902Z,101952.40
2018-12-17T01:59:51.587Z,101958.65
2018-12-17T02:02:55.228Z,101951.91
2018-12-17T02:05:58.853Z,101947.55
2018-12-17T02:09:02.504Z,101952.57
2018-12-17T02:12:05.994Z,101962.39
2018-12-17T02:15:09.645Z,101955.48
2018-12-17T02:18:13.200Z,101958.38
2018-12-17T02:21:16.806Z,101960.54
2018-12-17T02:24:21.407Z,101970.93
2018-12-17T02:27:25.013Z,101971.73
2018-12-17T02:30:28.640Z,101974.05
2018-12-17T02:33:32.189Z,101985.19
2018-12-17T02:36:35.852Z,101990.73
2018-12-17T02:39:39.399Z,101992.14
2018-12-17T02:42:43.976Z,101993.47
2018-12-17T02:45:47.557Z,101997.38
2018-12-17T02:48:51.136Z,101999.68
2018-12-17T02:51:54.712Z,102002.40
2018-12-17T02:54:58.378Z,101998.44
2018-12-17T02:58:01.926Z,102004.34
2018-12-17T03:01:06.014Z,101999.99
2018-12-17T03:04:09.576Z,102005.36
2018-12-17T03:07:13.074Z,102009.76
2018-12-17T03:10:16.695Z,102012.10
2018-12-17T03:13:20.308Z,102021.52
2018-12-17T03:16:23.856Z,102029.67
2018-12-17T03:19:27.444Z,102031.65
2018-12-17T03:22:30.981Z,102033.53
2018-12-17T03:25:34.497Z,102040.90
2018-12-17T03:28:38.097Z,102044.78
2018-12-17T03:31:41.786Z,102046.76
2018-12-17T03:34:45.384Z,102053.84
2018-12-17T03:37:48.915Z,102059.61
2018-12-17T03:40:52.605Z,102068.33
2018-12-17T03:43:56.119Z,102072.99
2018-12-17T03:46:59.685Z,102079.28
2018-12-17T03:50:04.513Z,102078.55
2018-12-17T03:53:08.076Z,102083.29
2018-12-17T03:56:11.648Z,102078.05
2018-12-17T03:59:15.175Z,102084.61
2018-12-17T04:02:18.830Z,102088.70
2018-12-17T04:05:22.443Z,102087.25
2018-12-17T04:08:25.935Z,102092.93
2018-12-17T04:11:29.552Z,102090.12
2018-12-17T04:14:33.076Z,102092.32
2018-12-17T04:17:36.572Z,102094.34
2018-12-17T04:20:40.071Z,102094.78
2018-12-17T04:23:43.559Z,102097.99
2018-12-17T04:26:47.145Z,102105.19
2018-12-17T04:29:50.668Z,102104.66
2018-12-17T04:32:54.124Z,102112.19
2018-12-17T04:35:57.825Z,102109.02
2018-12-17T04:39:01.471Z,102118.91
2018-12-17T04:42:05.122Z,102124.26
2018-12-17T04:45:08.549Z,102129.03
2018-12-17T04:48:12.082Z,102132.22
2018-12-17T04:51:15.722Z,102135.71
2018-12-17T04:54:19.233Z,102135.96
2018-12-17T04:57:22.840Z,102134.74
2018-12-17T05:00:26.316Z,102145.26
2018-12-17T05:03:30.007Z,102143.93
2018-12-17T05:06:33.476Z,102136.84
2018-12-17T05:09:37.080Z,102143.10
2018-12-17T05:12:40.684Z,102143.28
2018-12-17T05:15:44.266Z,102146.89
2018-12-17T05:18:47.845Z,102149.63
2018-12-17T05:21:51.399Z,102156.51
2018-12-17T05:24:54.863Z,102162.85
2018-12-17T05:27:58.271Z,102168.62
2018-12-17T05:31:01.816Z,102167.02
2018-12-17T05:34:05.356Z,102171.22
2018-12-17T05:37:08.902Z,102172.36
2018-12-17T05:40:12.276Z,102180.12
2018-12-17T05:43:15.771Z,102183.28
2018-12-17T05:46:19.306Z,102181.05
2018-12-17T05:49:22.756Z,102188.68
2018-12-17T05:52:26.682Z,102193.65
2018-12-17T05:55:30.212Z,102192.73
2018-12-17T05:58:33.725Z,102196.60
2018-12-17T06:01:37.302Z,102201.23
2018-12-17T06:04:40.800Z,102205.33
2018-12-17T06:07:44.271Z,102211.00
2018-12-17T06:10:47.872Z,102212.20
2018-12-17T06:13:51.389Z,102218.08
2018-12-17T06:16:56.030Z,102222.89
2018-12-17T06:20:00.655Z,102231.29
2018-12-17T06:23:04.145Z,102245.80
2018-12-17T06:26:07.766Z,102245.39
2018-12-17T06:29:11.306Z,102251.20
2018-12-17T06:32:14.841Z,102256.36
2018-12-17T06:35:18.390Z,102257.54
2018-12-17T06:38:21.927Z,102265.87
2018-12-17T06:41:25.767Z,102271.55
2018-12-17T06:44:29.374Z,102277.73
2018-12-17T06:47:33.088Z,102283.93
2018-12-17T06:50:36.631Z,102277.21
2018-12-17T06:53:40.042Z,102279.08
2018-12-17T06:56:43.480Z,102285.24
2018-12-17T06:59:47.019Z,102285.88
2018-12-17T07:02:50.684Z,102291.92
2018-12-17T07:05:54.217Z,102291.92
2018-12-17T07:08:57.678Z,102294.67
2018-12-17T07:12:01.208Z,102307.14
2018-12-17T07:15:05.765Z,102305.73
2018-12-17T07:18:09.336Z,102314.90
2018-12-17T07:21:12.885Z,102313.41
2018-12-17T07:24:16.512Z,102316.54
2018-12-17T07:27:21.107Z,102321.27
2018-12-17T07:30:24.721Z,102325.87
2018-12-17T07:33:28.395Z,102334.04
2018-12-17T07:36:32.125Z,102339.89
2018-12-17T07:39:35.818Z,102346.89
2018-12-17T07:42:39.490Z,102352.37
2018-12-17T07:45:42.973Z,102358.89
2018-12-17T07:48:46.467Z,102371.08
2018-12-17T07:51:50.148Z,102374.03
2018-12-17T07:54:53.808Z,102376.10
2018-12-17T07:57:58.366Z,102390.88
2018-12-17T08:01:02.028Z,102387.19
2018-12-17T08:04:06.671Z,102396.01
2018-12-17T08:07:10.264Z,102395.23
2018-12-17T08:10:13.899Z,102399.94
2018-12-17T08:13:17.511Z,102403.92
2018-12-17T08:16:21.093Z,102402.92
2018-12-17T08:19:25.064Z,102410.93
2018-12-17T08:22:28.699Z,102414.04
2018-12-17T08:25:32.362Z,102419.47
2018-12-17T08:28:35.961Z,102418.60
2018-12-17T08:31:39.469Z,102427.03
2018-12-17T08:34:42.990Z,102434.42
2018-12-17T08:37:46.481Z,102437.24
2018-12-17T08:40:50.096Z,102432.21
2018-12-17T08:43:53.673Z,102439.85
2018-12-17T08:46:57.296Z,102442.37
2018-12-17T08:50:00.883Z,102442.65
2018-12-17T08:53:04.812Z,102442.29
2018-12-17T08:56:08.508Z,102445.54
2018-12-17T08:59:12.183Z,102444.98
2018-12-17T09:02:15.725Z,102450.91
2018-12-17T09:05:19.247Z,102452.29
2018-12-17T09:08:23.129Z,102464.57
2018-12-17T09:11:26.798Z,102466.01
2018-12-17T09:14:30.442Z,102478.84
2018-12-17T09:17:34.056Z,102478.45
2018-12-17T09:20:37.546Z,102488.26
2018-12-17T09:23:41.060Z,102497.92
2018-12-17T09:26:44.756Z,102493.93
2018-12-17T09:29:48.374Z,102499.75
2018-12-17T09:32:52.032Z,102498.35
2018-12-17T09:35:57.970Z,102502.38
2018-12-17T09:39:01.472Z,102500.40
2018-12-17T09:42:05.107Z,102508.81
2018-12-17T09:45:08.604Z,102510.06
2018-12-17T09:48:12.169Z,102507.81
2018-12-17T09:51:19.651Z,102507.61
2018-12-17T09:54:22.601Z,102508.28
2018-12-17T09:57:26.053Z,102512.71
2018-12-17T10:00:30.035Z,102516.34
2018-12-17T10:03:33.685Z,102517.40
2018-12-17T10:06:37.261Z,102514.23
2018-12-17T10:09:41.812Z,102516.17
2018-12-17T10:12:45.906Z,102513.08
2018-12-17T10:15:49.473Z,102516.87
2018-12-17T10:18:52.943Z,102518.77
2018-12-17T10:21:57.613Z,102519.77
2018-12-17T10:25:01.218Z,102520.83
2018-12-17T10:28:04.809Z,102519.86
2018-12-17T10:31:08.359Z,102526.96
2018-12-17T10:34:12.022Z,102524.36
2018-12-17T10:37:15.813Z,102520.32
2018-12-17T10:40:19.424Z,102526.59
2018-12-17T10:43:22.878Z,102518.72
2018-12-17T10:46:26.923Z,102518.72
2018-12-17T10:49:31.747Z,102517.30
2018-12-17T10:52:35.387Z,102522.57
2018-12-17T10:55:39.220Z,102521.64
2018-12-17T10:58:42.830Z,102522.63
2018-12-17T11:02:54.304Z,102518.80
2018-12-17T11:05:57.927Z,102512.62
2018-12-17T11:09:02.335Z,102515.79
2018-12-17T11:12:04.944Z,102507.49
2018-12-17T11:15:10.350Z,102510.24
2018-12-17T11:18:13.846Z,102498.86
2018-12-17T11:21:17.830Z,102505.49
2018-12-17T11:24:21.585Z,102498.99
2018-12-17T11:27:25.104Z,102503.78
2018-12-17T11:30:28.754Z,102504.52
2018-12-17T11:33:32.786Z,102508.72
2018-12-17T11:36:36.395Z,102513.18
2018-12-17T11:39:39.934Z,102511.35
2018-12-17T11:42:43.724Z,102515.32
2018-12-17T11:45:47.243Z,102514.77
2018-12-17T11:48:50.788Z,102515.41
2018-12-17T11:51:54.250Z,102507.13
2018-12-17T11:54:57.735Z,102506.96
2018-12-17T11:58:13.329Z,102502.38
2018-12-17T12:01:16.919Z,102502.33
2018-12-17T12:04:20.506Z,102508.14
2018-12-17T12:07:24.013Z,102509.20
2018-12-17T12:10:27.644Z,102511.79
2018-12-17T12:13:32.097Z,102515.02
2018-12-17T12:16:35.653Z,102509.79
2018-12-17T12:19:39.198Z,102506.09
2018-12-17T12:22:42.604Z,102507.14
2018-12-17T12:25:46.120Z,102519.50
2018-12-17T12:28:49.509Z,102521.71
2018-12-17T12:31:52.899Z,102520.11
2018-12-17T12:34:56.479Z,102531.77
2018-12-17T12:37:59.916Z,102534.69
2018-12-17T12:41:04.551Z,102544.60
2018-12-17T12:44:08.864Z,102540.22
2018-12-17T12:47:11.849Z,102551.30
2018-12-17T12:50:15.518Z,102542.58
2018-12-17T12:53:19.143Z,102526.03
2018-12-17T12:56:22.830Z,102538.21
2018-12-17T12:59:26.597Z,102538.78
2018-12-17T13:02:30.175Z,102562.74
2018-12-17T13:05:34.195Z,102565.53
2018-12-17T13:08:39.747Z,102570.70
2018-12-17T13:11:43.427Z,102582.82
2018-12-17T13:14:47.121Z,102594.76
2018-12-17T13:17:50.653Z,102597.63
2018-12-17T13:20:54.297Z,102595.47
2018-12-17T13:23:57.937Z,102598.36
2018-12-17T13:27:01.503Z,102600.81
2018-12-17T13:30:06.913Z,102605.49
2018-12-17T13:33:10.559Z,102606.35
2018-12-17T13:36:14.721Z,102611.34
2018-12-17T13:39:17.886Z,102610.46
2018-12-17T13:42:21.717Z,102607.48
2018-12-17T13:45:25.685Z,102618.24
2018-12-17T13:48:29.459Z,102611.38
2018-12-17T13:51:33.447Z,102616.62
2018-12-17T13:54:37.064Z,102618.43
2018-12-17T13:57:40.682Z,102633.22
2018-12-17T14:00:44.892Z,102641.99
2018-12-17T14:03:48.696Z,102632.78
2018-12-17T14:06:52.294Z,102643.84
2018-12-17T14:10:01.281Z,102651.45
2018-12-17T14:13:04.881Z,102661.94
2018-12-17T14:16:14.954Z,102660.13
2018-12-17T14:19:22.674Z,102661.02
2018-12-17T14:22:27.141Z,102660.22
2018-12-17T14:25:30.753Z,102662.85
2018-12-17T14:28:34.579Z,102668.91
2018-12-17T14:31:38.055Z,102687.47
2018-12-17T14:34:41.666Z,102690.70
2018-12-17T14:37:50.465Z,102700.44
2018-12-17T14:40:54.038Z,102697.67
2018-12-17T14:44:01.794Z,102704.51
2018-12-17T14:47:05.628Z,102710.23
2018-12-17T14:50:09.142Z,102715.30
2018-12-17T14:53:12.736Z,102718.95
2018-12-17T14:56:16.810Z,102722.02
2018-12-17T14:59:20.424Z,102726.50
2018-12-17T15:02:23.969Z,102730.91
2018-12-17T15:05:27.481Z,102732.45
2018-12-17T15:08:31.099Z,102740.20
2018-12-17T15:11:34.775Z,102740.00
2018-12-17T15:14:38.289Z,102739.95
2018-12-17T15:17:41.887Z,102749.70
2018-12-17T15:20:45.342Z,102745.30
2018-12-17T15:23:48.955Z,102734.69
2018-12-17T15:26:52.415Z,102738.68
2018-12-17T15:29:55.892Z,102744.36
2018-12-17T15:32:59.378Z,102746.64
2018-12-17T15:36:03.053Z,102749.84
2018-12-17T15:39:06.919Z,102749.53
2018-12-17T15:42:10.756Z,102752.37
2018-12-17T15:45:15.041Z,102754.66
2018-12-17T15:48:19.232Z,102764.52
2018-12-17T15:51:22.695Z,102770.84
2018-12-17T15:54:27.184Z,102780.19
2018-12-17T15:57:32.233Z,102783.24
2018-12-17T16:00:36.956Z,102783.63
2018-12-17T16:03:41.639Z,102786.41
2018-12-17T16:06:45.333Z,102792.25
2018-12-17T16:09:49.197Z,102792.13
2018-12-17T16:12:52.706Z,102795.90
2018-12-17T16:15:56.168Z,102797.52
2018-12-17T16:19:00.262Z,102802.21
2018-12-17T16:22:04.845Z,102808.79
2018-12-17T16:25:08.664Z,102817.69
2018-12-17T16:28:12.201Z,102817.28
2018-12-17T16:31:16.057Z,102816.10
2018-12-17T16:34:19.657Z,102821.13
2018-12-17T16:37:23.081Z,102821.14
2018-12-17T16:40:26.722Z,102821.80
2018-12-17T16:43:30.455Z,102814.11
2018-12-17T16:46:34.026Z,102820.02
2018-12-17T16:49:37.683Z,102818.65
2018-12-17T16:52:41.414Z,102823.62
2018-12-17T16:55:45.002Z,102829.78
2018-12-17T16:58:48.690Z,102845.09
2018-12-17T17:01:52.304Z,102848.45
2018-12-17T17:04:55.847Z,102850.90
2018-12-17T17:07:59.305Z,102853.79
2018-12-17T17:11:02.797Z,102854.17
2018-12-17T17:14:06.314Z,102849.42
2018-12-17T17:17:09.824Z,102850.94
2018-12-17T17:20:13.305Z,102860.25
2018-12-17T17:23:16.714Z,102860.67
2018-12-17T17:26:20.381Z,102863.44
2018-12-17T17:29:23.919Z,102879.73
2018-12-17T17:32:27.443Z,102882.55
2018-12-17T17:35:30.992Z,102880.34
2018-12-17T17:38:34.372Z,102887.34
2018-12-17T17:41:37.768Z,102888.79
2018-12-17T17:44:41.143Z,102894.62
2018-12-17T17:47:45.011Z,102899.76
2018-12-17T17:50:48.475Z,102893.92
2018-12-17T17:53:51.837Z,102901.50
2018-12-17T17:56:56.404Z,102908.29
2018-12-17T17:59:59.999Z,102907.47
2018-12-17T18:03:05.033Z,102914.48
2018-12-17T18:06:16.083Z,102918.59
2018-12-17T18:09:12.380Z,102922.14
2018-12-17T18:12:15.954Z,102918.34
2018-12-17T18:15:19.558Z,102911.44
2018-12-17T18:18:23.055Z,102923.53
2018-12-17T18:21:27.564Z,102922.30
2018-12-17T18:24:31.136Z,102921.85
2018-12-17T18:27:34.776Z,102936.35
2018-12-17T18:30:38.663Z,102936.36
2018-12-17T18:33:42.267Z,102940.02
2018-12-17T18:36:45.920Z,102942.42
2018-12-17T18:39:49.539Z,102945.67
2018-12-17T18:42:53.127Z,102941.84
2018-12-17T18:45:56.781Z,102948.47
2018-12-17T18:49:00.835Z,102955.65
2018-12-17T18:52:04.447Z,102955.16
2018-12-17T18:55:07.994Z,102953.84
2018-12-17T18:58:11.565Z,102961.95
2018-12-17T19:01:15.101Z,102959.39
2018-12-17T19:04:19.668Z,102961.78
2018-12-17T19:07:23.263Z,102964.37
2018-12-17T19:10:31.043Z,102970.75
2018-12-17T19:13:34.471Z,102973.13
2018-12-17T19:16:38.203Z,102991.33
2018-12-17T19:19:41.706Z,102987.06
2018-12-17T19:22:45.327Z,102999.25
2018-12-17T19:25:48.874Z,102999.11
2018-12-17T19:28:52.385Z,103000.14
2018-12-17T19:31:56.001Z,102995.98
2018-12-17T19:34:59.596Z,103000.43
2018-12-17T19:38:03.129Z,102998.45
2018-12-17T19:41:06.651Z,102997.86
2018-12-17T19:44:10.272Z,103008.40
2018-12-17T19:47:13.827Z,103007.88
2018-12-17T19:50:17.428Z,103012.94
2018-12-17T19:53:20.781Z,103013.94
2018-12-17T19:56:24.222Z,103022.18
2018-12-17T19:59:28.489Z,103023.18
2018-12-17T20:02:32.056Z,103026.93
2018-12-17T20:05:35.659Z,103030.28
2018-12-17T20:08:39.256Z,103029.96
2018-12-17T20:11:42.665Z,103033.16
2018-12-17T20:14:46.647Z,103035.81
2018-12-17T20:17:50.211Z,103044.69
2018-12-17T20:20:54.096Z,103046.01
2018-12-17T20:23:57.732Z,103044.29
2018-12-17T20:27:01.216Z,103045.93
2018-12-17T20:30:05.404Z,103053.19
2018-12-17T20:33:08.895Z,103057.42
2018-12-17T20:36:12.904Z,103060.49
2018-12-17T20:39:16.322Z,103064.10
2018-12-17T20:42:19.761Z,103065.25
2018-12-17T20:45:23.483Z,103067.65
2018-12-17T20:48:26.949Z,103065.91
2018-12-17T20:51:30.464Z,103063.96
2018-12-17T20:54:34.070Z,103065.07
2018-12-17T20:57:37.706Z,103067.69
2018-12-17T21:00:41.401Z,103071.70
2018-12-17T21:03:44.938Z,103070.05
2018-12-17T21:06:50.052Z,103068.76
2018-12-17T21:09:52.025Z,103072.59
2018-12-17T21:12:55.666Z,103072.59
2018-12-17T21:15:59.213Z,103074.97
2018-12-17T21:19:02.767Z,103080.25
2018-12-17T21:22:09.328Z,103077.22
2018-12-17T21:25:12.951Z,103075.57
2018-12-17T21:28:16.438Z,103074.54
2018-12-17T21:31:19.925Z,103078.26
2018-12-17T21:34:23.471Z,103082.42
2018-12-17T21:37:28.056Z,103077.19
2018-12-17T21:40:31.497Z,103082.61
2018-12-17T21:43:36.143Z,103078.30
2018-12-17T21:46:38.977Z,103080.28
2018-12-17T21:49:42.511Z,103081.46
2018-12-17T21:52:46.922Z,103083.90
2018-12-17T21:55:50.508Z,103080.69
2018-12-17T21:58:54.022Z,103083.34
2018-12-17T22:01:57.543Z,103075.91
2018-12-17T22:05:00.938Z,103084.04
2018-12-17T22:08:04.445Z,103078.52
2018-12-17T22:11:08.500Z,103084.93
2018-12-17T22:14:12.044Z,103082.67
2018-12-17T22:17:15.684Z,103084.12
2018-12-17T22:20:19.183Z,103092.92
2018-12-17T22:23:22.672Z,103096.94
2018-12-17T22:26:29.232Z,103097.27
2018-12-17T22:29:29.715Z,103095.54
2018-12-17T22:32:33.116Z,103100.22
2018-12-17T22:35:36.460Z,103102.66
2018-12-17T22:38:39.890Z,103100.40
2018-12-17T22:41:43.307Z,103102.14
2018-12-17T22:44:46.716Z,103103.46
2018-12-17T22:47:50.065Z,103101.21
2018-12-17T22:50:53.611Z,103100.43
2018-12-17T22:53:57.087Z,103104.86
2018-12-17T22:57:00.601Z,103101.65
2018-12-17T23:00:04.328Z,103102.98
2018-12-17T23:03:07.805Z,103103.24
2018-12-17T23:06:11.308Z,103107.93
2018-12-17T23:09:13.554Z,103109.32
2018-12-17T23:12:28.329Z,103112.71
2018-12-17T23:15:43.148Z,103113.41
2018-12-17T23:18:45.445Z,103114.06
2018-12-17T23:21:49.904Z,103108.76
2018-12-17T23:24:53.433Z,103109.47
2018-12-17T23:27:56.908Z,103110.61
2018-12-17T23:31:00.439Z,103107.08
2018-12-17T23:34:03.913Z,103108.39
2018-12-17T23:37:07.479Z,103100.69
2018-12-17T23:40:11.144Z,103101.35
2018-12-17T23:43:14.763Z,103101.11
2018-12-17T23:46:18.297Z,103098.85
2018-12-17T23:49:21.813Z,103097.64
2018-12-17T23:52:25.462Z,103094.98
2018-12-17T23:55:29.047Z,103095.65
2018-12-17T23:58:32.670Z,103098.71
